Terminal Aerodrome Forecast
Issued by NWS Wilmington, NC

Current Version | Previous Version | Graphics & Text | Print | Product List | Glossary Off
Versions: 1 2 3 4 5 6 7 8 9 10 11 12 13 14 15 16

000
FTUS42 KILM 212300
TAFILM
TAF
KILM 212320Z 2200/2224 23006KT P6SM SKC
     FM220600 32010KT P6SM SKC
     FM221300 31012G18KT P6SM SKC
     FM222200 34004KT P6SM SKC=

USA.gov is the U.S. government's official web portal to all federal, state and local government web resources and services.